createdAt,value
2023-01-19T00:01:27.519Z,10.59
2023-01-19T00:03:54.921Z,10.58
2023-01-19T00:06:22.360Z,10.70
2023-01-19T00:08:52.838Z,10.76
2023-01-19T00:11:20.483Z,10.75
2023-01-19T00:13:50.745Z,10.82
2023-01-19T00:16:22.935Z,10.77
2023-01-19T00:18:52.586Z,10.77
2023-01-19T00:21:21.739Z,10.76
2023-01-19T00:23:51.203Z,10.75
2023-01-19T00:26:21.975Z,10.71
2023-01-19T00:28:50.337Z,10.70
2023-01-19T00:31:20.593Z,10.65
2023-01-19T00:33:49.266Z,10.68
2023-01-19T00:36:16.723Z,10.65
2023-01-19T00:38:44.130Z,10.66
2023-01-19T00:41:11.595Z,10.65
2023-01-19T00:43:38.995Z,10.59
2023-01-19T00:46:06.668Z,10.56
2023-01-19T00:48:34.100Z,10.55
2023-01-19T00:51:01.634Z,10.59
2023-01-19T00:53:32.472Z,10.59
2023-01-19T00:55:59.864Z,10.54
2023-01-19T00:58:27.470Z,10.55
2023-01-19T01:00:57.501Z,10.65
2023-01-19T01:03:28.016Z,10.74
2023-01-19T01:05:55.748Z,10.70
2023-01-19T01:08:23.267Z,10.76
2023-01-19T01:10:51.905Z,10.76
2023-01-19T01:13:21.432Z,10.74
2023-01-19T01:15:53.431Z,10.74
2023-01-19T01:18:22.133Z,10.78
2023-01-19T01:20:49.688Z,10.78
2023-01-19T01:23:23.095Z,10.71
2023-01-19T01:25:50.688Z,10.66
2023-01-19T01:28:18.153Z,10.65
2023-01-19T01:30:45.510Z,10.71
2023-01-19T01:33:13.367Z,10.70
2023-01-19T01:35:40.891Z,10.69
2023-01-19T01:38:09.404Z,10.72
2023-01-19T01:40:40.451Z,10.77
2023-01-19T01:43:17.593Z,10.82
2023-01-19T01:45:45.292Z,10.85
2023-01-19T01:48:22.420Z,10.88
2023-01-19T01:51:27.017Z,10.94
2023-01-19T01:54:11.888Z,10.89
2023-01-19T01:56:44.196Z,10.91
2023-01-19T01:59:26.096Z,10.90
2023-01-19T02:02:18.052Z,10.89
2023-01-19T02:05:04.150Z,10.86
2023-01-19T02:08:14.671Z,10.85
2023-01-19T02:11:03.220Z,10.85
2023-01-19T02:13:33.423Z,10.87
2023-01-19T02:16:08.466Z,10.87
2023-01-19T02:18:37.481Z,10.76
2023-01-19T02:21:30.508Z,10.87
2023-01-19T02:24:01.647Z,10.76
2023-01-19T02:26:44.390Z,10.79
2023-01-19T02:29:17.663Z,10.85
2023-01-19T02:31:45.889Z,10.76
2023-01-19T02:34:17.866Z,10.77
2023-01-19T02:36:53.442Z,10.79
2023-01-19T02:39:31.225Z,10.86
2023-01-19T02:42:09.776Z,11.00
2023-01-19T02:44:39.533Z,10.97
2023-01-19T02:47:07.503Z,11.01
2023-01-19T02:49:34.898Z,10.98
2023-01-19T02:52:02.861Z,10.94
2023-01-19T02:55:09.522Z,10.88
2023-01-19T03:48:54.340Z,9.79
2023-01-19T03:51:22.414Z,9.77
2023-01-19T03:53:50.121Z,9.78
2023-01-19T03:56:22.042Z,9.76
2023-01-19T03:58:49.906Z,9.74
2023-01-19T04:01:22.714Z,9.67
2023-01-19T04:03:51.889Z,9.65
2023-01-19T04:06:21.132Z,9.68
2023-01-19T04:08:52.042Z,9.73
2023-01-19T04:11:19.563Z,9.70
2023-01-19T04:13:47.024Z,9.70
2023-01-19T04:16:14.455Z,9.75
2023-01-19T04:18:42.380Z,9.68
2023-01-19T04:21:09.783Z,9.63
2023-01-19T04:23:37.190Z,9.64
2023-01-19T04:26:07.866Z,9.57
2023-01-19T04:28:37.234Z,9.55
2023-01-19T04:31:07.017Z,9.67
2023-01-19T04:33:35.243Z,9.64
2023-01-19T04:36:04.127Z,9.59
2023-01-19T04:38:31.551Z,9.50
2023-01-19T04:40:58.936Z,9.39
2023-01-19T04:43:26.356Z,9.34
2023-01-19T04:45:53.749Z,9.39
2023-01-19T04:48:22.020Z,9.38
2023-01-19T04:50:52.616Z,9.27
2023-01-19T04:53:19.947Z,9.20
2023-01-19T04:55:47.750Z,9.34
2023-01-19T04:58:15.213Z,9.35
2023-01-19T05:00:43.505Z,9.33
2023-01-19T05:03:10.866Z,9.42
2023-01-19T05:05:38.400Z,9.46
2023-01-19T05:08:06.095Z,9.50
2023-01-19T05:10:33.532Z,9.55
2023-01-19T05:13:01.122Z,9.51
2023-01-19T05:15:29.633Z,9.46
2023-01-19T05:17:58.113Z,9.43
2023-01-19T05:20:25.562Z,9.43
2023-01-19T05:22:53.386Z,9.47
2023-01-19T05:25:20.783Z,9.46
2023-01-19T05:27:48.331Z,9.46
2023-01-19T05:30:16.653Z,9.44
2023-01-19T05:32:44.307Z,9.43
2023-01-19T05:35:13.476Z,9.42
2023-01-19T05:37:41.026Z,9.42
2023-01-19T05:40:09.550Z,9.36
2023-01-19T05:42:37.148Z,9.35
2023-01-19T05:45:05.573Z,9.39
2023-01-19T05:47:32.785Z,9.34
2023-01-19T05:50:00.041Z,9.40
2023-01-19T05:52:27.420Z,9.38
2023-01-19T05:54:55.243Z,9.34
2023-01-19T05:57:23.320Z,9.26
2023-01-19T05:59:50.637Z,9.23
2023-01-19T06:02:18.178Z,9.18
2023-01-19T06:04:45.545Z,9.24
2023-01-19T06:07:12.905Z,9.31
2023-01-19T06:09:40.302Z,9.32
2023-01-19T06:12:07.711Z,9.42
2023-01-19T06:14:36.968Z,9.38
2023-01-19T06:17:06.115Z,9.46
2023-01-19T06:19:34.750Z,9.60
2023-01-19T06:22:02.879Z,9.72
2023-01-19T06:24:30.439Z,9.81
2023-01-19T06:26:57.771Z,9.77
2023-01-19T06:29:25.498Z,9.77
2023-01-19T06:31:53.637Z,9.84
2023-01-19T06:34:21.576Z,9.84
2023-01-19T06:36:48.925Z,9.80
2023-01-19T06:39:16.272Z,9.81
2023-01-19T06:41:43.641Z,9.81
2023-01-19T06:44:10.953Z,9.88
2023-01-19T06:46:38.376Z,9.95
2023-01-19T06:49:05.829Z,10.02
2023-01-19T06:51:33.345Z,10.05
2023-01-19T06:54:00.758Z,10.08
2023-01-19T06:56:28.119Z,10.02
2023-01-19T06:58:56.119Z,9.99
2023-01-19T07:01:23.516Z,10.03
2023-01-19T07:03:51.225Z,10.15
2023-01-19T07:06:18.626Z,10.25
2023-01-19T07:08:46.032Z,10.31
2023-01-19T07:11:25.563Z,10.43
2023-01-19T07:13:59.803Z,10.51
2023-01-19T07:16:27.516Z,10.60
2023-01-19T07:18:55.399Z,10.71
2023-01-19T07:21:23.270Z,10.83
2023-01-19T07:23:53.967Z,11.90
2023-01-19T07:26:24.916Z,15.28
2023-01-19T07:28:52.699Z,16.40
2023-01-19T07:31:20.810Z,16.34
2023-01-19T07:33:48.189Z,15.70
2023-01-19T07:36:15.621Z,13.65
2023-01-19T07:38:43.039Z,13.05
2023-01-19T07:41:10.926Z,13.66
2023-01-19T07:43:38.317Z,13.16
2023-01-19T07:46:07.822Z,13.49
2023-01-19T07:48:35.411Z,12.37
2023-01-19T07:51:05.799Z,12.28
2023-01-19T07:53:33.382Z,12.08
2023-01-19T07:56:00.728Z,12.13
2023-01-19T07:58:28.285Z,11.91
2023-01-19T08:00:55.875Z,11.94
2023-01-19T08:03:23.319Z,11.68
2023-01-19T08:05:53.091Z,11.67
2023-01-19T08:08:20.779Z,11.99
2023-01-19T08:10:52.662Z,12.76
2023-01-19T08:13:20.019Z,13.52
2023-01-19T08:15:52.960Z,13.62
2023-01-19T08:18:21.359Z,14.91
2023-01-19T08:20:48.910Z,14.57
2023-01-19T08:23:18.069Z,14.78
2023-01-19T08:25:46.178Z,14.38
2023-01-19T08:28:16.803Z,14.30
2023-01-19T08:30:45.061Z,14.40
2023-01-19T08:33:13.865Z,14.57
2023-01-19T08:35:47.274Z,14.67
2023-01-19T08:38:15.458Z,14.17
2023-01-19T08:40:43.217Z,14.42
2023-01-19T08:43:16.675Z,14.22
2023-01-19T08:45:50.261Z,13.89
2023-01-19T08:48:24.772Z,15.09
2023-01-19T08:50:53.440Z,15.71
2023-01-19T08:53:23.621Z,16.20
2023-01-19T08:56:03.515Z,15.61
2023-01-19T08:58:30.830Z,15.76
2023-01-19T09:01:01.954Z,15.73
2023-01-19T09:03:30.364Z,15.48
2023-01-19T09:05:57.777Z,15.12
2023-01-19T09:08:25.119Z,14.95
2023-01-19T09:10:52.594Z,15.52
2023-01-19T09:13:20.636Z,15.17
2023-01-19T09:15:48.399Z,14.99
2023-01-19T09:18:20.247Z,15.34
2023-01-19T09:20:50.228Z,15.13
2023-01-19T09:23:20.469Z,15.06
2023-01-19T09:25:48.895Z,14.85
2023-01-19T09:28:17.762Z,15.60
2023-01-19T09:30:45.513Z,15.76
2023-01-19T09:33:16.844Z,16.38
2023-01-19T09:35:47.098Z,16.57
2023-01-19T09:38:16.831Z,16.83
2023-01-19T09:40:53.228Z,17.14
2023-01-19T09:43:35.302Z,17.41
2023-01-19T09:46:18.844Z,18.17
2023-01-19T09:48:52.692Z,18.26
2023-01-19T09:51:27.789Z,18.66
2023-01-19T09:54:19.922Z,18.36
2023-01-19T09:56:52.429Z,19.84
2023-01-19T09:59:30.873Z,20.08
2023-01-19T10:02:25.785Z,19.98
2023-01-19T10:05:12.411Z,20.18
2023-01-19T10:08:21.461Z,20.11
2023-01-19T10:10:54.489Z,18.78
2023-01-19T10:13:48.825Z,18.49
2023-01-19T10:16:47.143Z,17.87
2023-01-19T10:19:33.728Z,18.50
2023-01-19T10:22:22.204Z,17.81
2023-01-19T10:24:56.567Z,19.23
2023-01-19T10:27:30.248Z,18.91
2023-01-19T10:29:59.556Z,19.20
2023-01-19T10:32:33.490Z,18.05
2023-01-19T10:35:01.060Z,17.90
2023-01-19T10:37:34.334Z,17.72
2023-01-19T10:40:29.072Z,18.31
2023-01-19T10:42:57.585Z,18.87
2023-01-19T10:45:30.896Z,18.27
2023-01-19T10:48:06.419Z,18.60
2023-01-19T10:50:41.343Z,18.71
2023-01-19T10:53:22.201Z,18.90
2023-01-19T10:56:23.837Z,19.26
2023-01-19T10:58:51.620Z,17.66
2023-01-19T11:01:26.480Z,17.57
2023-01-19T11:04:00.046Z,18.20
2023-01-19T11:06:30.730Z,18.53
2023-01-19T11:09:30.262Z,17.81
2023-01-19T11:11:57.672Z,17.48
2023-01-19T11:14:29.319Z,18.39
2023-01-19T11:16:58.843Z,18.53
2023-01-19T11:19:31.326Z,18.87
2023-01-19T11:22:33.342Z,18.50
2023-01-19T11:25:04.738Z,18.69
2023-01-19T11:27:37.506Z,18.08
2023-01-19T11:30:25.764Z,18.10
2023-01-19T11:32:54.468Z,18.45
2023-01-19T11:35:39.405Z,18.14
2023-01-19T11:38:12.856Z,16.57
2023-01-19T11:40:55.119Z,16.45
2023-01-19T11:43:43.391Z,16.15
2023-01-19T11:46:17.577Z,16.16
2023-01-19T11:49:13.909Z,16.41
2023-01-19T11:52:13.255Z,16.19
2023-01-19T11:55:01.527Z,15.94
2023-01-19T11:57:29.006Z,15.62
2023-01-19T11:59:58.692Z,15.41
2023-01-19T12:02:37.250Z,15.15
2023-01-19T12:05:14.730Z,15.03
2023-01-19T12:07:45.385Z,15.26
2023-01-19T12:10:38.132Z,14.53
2023-01-19T12:13:05.473Z,14.41
2023-01-19T12:15:42.548Z,13.63
2023-01-19T12:18:32.334Z,13.30
2023-01-19T12:21:01.334Z,13.23
2023-01-19T12:24:03.800Z,13.21
2023-01-19T12:26:42.102Z,12.84
2023-01-19T12:29:15.513Z,12.70
2023-01-19T12:31:43.367Z,12.49
2023-01-19T12:34:42.295Z,12.14
2023-01-19T12:37:30.849Z,11.95
2023-01-19T12:40:14.151Z,11.95
2023-01-19T12:42:47.651Z,11.95
2023-01-19T12:45:20.833Z,11.93
2023-01-19T12:47:53.694Z,11.97
2023-01-19T12:50:25.805Z,11.81
2023-01-19T12:52:58.568Z,11.77
2023-01-19T12:55:33.596Z,11.81
2023-01-19T12:58:10.635Z,11.78
2023-01-19T13:00:42.850Z,11.86
2023-01-19T13:03:19.226Z,11.86
2023-01-19T13:05:56.805Z,11.77
2023-01-19T13:09:00.928Z,11.77
2023-01-19T13:11:33.361Z,11.90
2023-01-19T13:14:01.803Z,12.02
2023-01-19T13:16:29.225Z,12.25
2023-01-19T13:19:01.682Z,12.27
2023-01-19T13:21:58.249Z,12.22
2023-01-19T13:24:45.697Z,12.19
2023-01-19T13:27:13.495Z,12.22
2023-01-19T13:29:43.869Z,11.93
2023-01-19T13:32:18.831Z,11.50
2023-01-19T13:34:54.599Z,11.34
2023-01-19T13:37:27.710Z,11.38
2023-01-19T13:39:55.867Z,11.13
2023-01-19T13:42:34.141Z,10.86
2023-01-19T13:45:16.305Z,10.66
2023-01-19T13:47:48.782Z,10.34
2023-01-19T13:50:24.396Z,10.58
2023-01-19T13:52:54.063Z,10.83
2023-01-19T13:55:23.655Z,10.95
2023-01-19T13:57:52.219Z,11.01
2023-01-19T14:00:38.521Z,11.12
2023-01-19T14:03:23.818Z,11.33
2023-01-19T14:05:55.316Z,11.31
2023-01-19T14:08:25.599Z,11.22
2023-01-19T14:10:56.477Z,11.11
2023-01-19T14:13:34.399Z,11.13
2023-01-19T14:16:13.710Z,11.04
2023-01-19T14:18:41.235Z,11.11
2023-01-19T14:21:14.494Z,11.06
2023-01-19T14:23:55.138Z,10.93
2023-01-19T14:26:37.547Z,10.94
2023-01-19T14:29:28.352Z,10.88
2023-01-19T14:32:01.449Z,10.88
2023-01-19T14:34:45.231Z,10.78
2023-01-19T14:37:28.715Z,10.83
2023-01-19T14:40:08.914Z,10.74
2023-01-19T14:42:42.368Z,10.75
2023-01-19T14:45:29.028Z,10.72
2023-01-19T14:48:18.162Z,10.60
2023-01-19T14:51:02.047Z,10.45
2023-01-19T14:53:37.518Z,10.39
2023-01-19T14:56:06.856Z,10.28
2023-01-19T14:58:35.909Z,10.01
2023-01-19T15:01:04.653Z,9.48
2023-01-19T15:03:43.982Z,9.13
2023-01-19T15:06:16.701Z,8.64
2023-01-19T15:08:45.495Z,8.25
2023-01-19T15:11:31.568Z,8.12
2023-01-19T15:14:00.361Z,8.04
2023-01-19T15:16:31.484Z,7.87
2023-01-19T15:18:58.860Z,7.63
2023-01-19T15:21:26.934Z,7.48
2023-01-19T15:23:55.457Z,7.34
2023-01-19T15:26:26.300Z,7.22
2023-01-19T15:28:55.768Z,7.10
2023-01-19T15:31:26.055Z,7.01
2023-01-19T15:33:54.106Z,6.99
2023-01-19T15:36:24.246Z,6.99
2023-01-19T15:38:51.630Z,6.97
2023-01-19T15:41:30.078Z,6.92
2023-01-19T15:43:58.472Z,6.88
2023-01-19T15:46:26.321Z,6.89
2023-01-19T15:48:54.387Z,6.93
2023-01-19T15:51:27.800Z,6.98
2023-01-19T15:53:55.702Z,7.01
2023-01-19T15:56:27.995Z,6.97
2023-01-19T15:58:57.974Z,6.94
2023-01-19T16:01:35.156Z,6.97
2023-01-19T16:04:06.838Z,6.91
2023-01-19T16:06:34.544Z,6.71
2023-01-19T16:09:03.788Z,6.67
2023-01-19T16:11:34.314Z,6.62
2023-01-19T16:14:02.024Z,6.60
2023-01-19T16:16:29.935Z,6.52
2023-01-19T16:18:58.004Z,6.40
2023-01-19T16:21:26.095Z,6.36
2023-01-19T16:23:53.692Z,6.18
2023-01-19T16:26:34.919Z,6.01
2023-01-19T16:29:09.763Z,5.93
2023-01-19T16:31:39.224Z,5.93
2023-01-19T16:34:07.788Z,5.97
2023-01-19T16:36:37.544Z,5.93
2023-01-19T16:39:12.128Z,5.86
2023-01-19T16:41:40.250Z,5.93
2023-01-19T16:44:09.502Z,5.94
2023-01-19T16:46:40.703Z,5.98
2023-01-19T16:49:16.864Z,5.95
2023-01-19T16:51:44.809Z,5.90
2023-01-19T16:54:19.589Z,5.83
2023-01-19T16:56:48.081Z,5.78
2023-01-19T16:59:17.063Z,5.74
2023-01-19T17:01:45.999Z,5.72
2023-01-19T17:04:14.439Z,5.71
2023-01-19T17:06:41.965Z,5.73
2023-01-19T17:09:10.057Z,5.71
2023-01-19T17:11:40.247Z,5.76
2023-01-19T17:14:15.498Z,5.81
2023-01-19T17:16:44.284Z,5.74
2023-01-19T17:19:16.768Z,5.77
2023-01-19T17:21:49.742Z,5.75
2023-01-19T17:24:17.702Z,5.75
2023-01-19T17:26:45.970Z,5.77
2023-01-19T17:29:13.336Z,5.75
2023-01-19T17:31:41.252Z,5.71
2023-01-19T17:34:09.842Z,5.63
2023-01-19T17:36:37.957Z,5.55
2023-01-19T17:39:09.326Z,5.58
2023-01-19T17:41:36.929Z,5.61
2023-01-19T17:44:06.312Z,5.59
2023-01-19T17:46:37.403Z,5.61
2023-01-19T17:49:07.390Z,5.59
2023-01-19T17:51:35.848Z,5.57
2023-01-19T17:54:04.167Z,5.56
2023-01-19T17:56:36.693Z,5.57
2023-01-19T17:59:06.608Z,5.51
2023-01-19T18:01:38.209Z,5.56
2023-01-19T18:04:07.712Z,5.55
2023-01-19T18:06:35.332Z,5.55
2023-01-19T18:09:04.938Z,5.48
2023-01-19T18:11:32.439Z,5.41
2023-01-19T18:14:02.857Z,5.30
2023-01-19T18:16:30.872Z,5.29
2023-01-19T18:18:58.397Z,5.24
2023-01-19T18:21:28.220Z,5.18
2023-01-19T18:24:02.275Z,5.18
2023-01-19T18:26:31.286Z,5.10
2023-01-19T18:28:58.765Z,5.11
2023-01-19T18:31:27.800Z,5.00
2023-01-19T18:33:55.587Z,4.84
2023-01-19T18:36:23.267Z,4.74
2023-01-19T18:38:51.402Z,4.69
2023-01-19T18:41:21.604Z,4.68
2023-01-19T18:43:49.769Z,4.61
2023-01-19T18:46:17.313Z,4.60
2023-01-19T18:48:44.867Z,4.57
2023-01-19T18:51:15.845Z,4.56
2023-01-19T18:53:45.012Z,4.50
2023-01-19T18:56:15.490Z,4.47
2023-01-19T18:58:44.385Z,4.56
2023-01-19T19:01:32.512Z,4.53
2023-01-19T19:04:01.240Z,4.54
2023-01-19T19:06:29.171Z,4.54
2023-01-19T19:08:59.342Z,4.57
2023-01-19T19:11:28.185Z,4.58
2023-01-19T19:14:00.196Z,4.56
2023-01-19T19:16:28.930Z,4.61
2023-01-19T19:18:56.476Z,4.55
2023-01-19T19:21:25.468Z,4.42
2023-01-19T19:23:58.699Z,4.39
2023-01-19T19:26:28.284Z,4.36
2023-01-19T19:28:55.939Z,4.38
2023-01-19T19:31:26.100Z,4.26
2023-01-19T19:33:55.602Z,4.30
2023-01-19T19:36:25.125Z,4.26
2023-01-19T19:38:52.690Z,4.17
2023-01-19T19:41:27.072Z,4.19
2023-01-19T19:43:55.717Z,4.22
2023-01-19T19:46:24.438Z,4.26
2023-01-19T19:48:53.227Z,4.15
2023-01-19T19:51:27.176Z,4.17
2023-01-19T19:53:58.973Z,4.13
2023-01-19T19:56:31.608Z,4.11
2023-01-19T19:58:59.726Z,4.07
2023-01-19T20:01:32.861Z,4.09
2023-01-19T20:04:10.849Z,4.16
2023-01-19T20:06:44.741Z,4.09
2023-01-19T20:09:14.056Z,4.14
2023-01-19T20:11:44.077Z,4.13
2023-01-19T20:14:14.367Z,4.09
2023-01-19T20:16:42.242Z,4.05
2023-01-19T20:19:10.239Z,4.07
2023-01-19T20:21:41.791Z,4.07
2023-01-19T20:24:15.605Z,4.07
2023-01-19T20:26:48.186Z,4.09
2023-01-19T20:29:16.064Z,4.08
2023-01-19T20:31:51.504Z,4.10
2023-01-19T20:34:22.301Z,3.97
2023-01-19T20:36:51.602Z,3.99
2023-01-19T20:39:21.441Z,3.87
2023-01-19T20:41:51.219Z,3.62
2023-01-19T20:44:23.830Z,3.44
2023-01-19T20:46:52.234Z,3.30
2023-01-19T20:49:19.767Z,3.23
2023-01-19T20:51:47.423Z,3.27
2023-01-19T20:54:18.222Z,3.32
2023-01-19T20:56:45.666Z,3.30
2023-01-19T20:59:13.797Z,3.28
2023-01-19T21:01:42.503Z,3.29
2023-01-19T21:04:10.979Z,3.25
2023-01-19T21:06:39.118Z,3.23
2023-01-19T21:09:08.687Z,3.18
2023-01-19T21:11:38.895Z,3.21
2023-01-19T21:14:07.735Z,3.22
2023-01-19T21:16:36.726Z,3.15
2023-01-19T21:19:05.317Z,3.09
2023-01-19T21:21:32.750Z,3.10
2023-01-19T21:24:02.425Z,3.17
2023-01-19T21:26:31.462Z,3.11
2023-01-19T21:29:00.776Z,2.98
2023-01-19T21:31:29.033Z,2.98
2023-01-19T21:33:59.509Z,2.94
2023-01-19T21:36:27.606Z,2.87
2023-01-19T21:39:00.745Z,2.93
2023-01-19T21:41:30.298Z,2.99
2023-01-19T21:44:00.082Z,3.01
2023-01-19T21:46:33.412Z,3.07
2023-01-19T21:49:07.338Z,3.09
2023-01-19T21:51:37.187Z,3.10
2023-01-19T21:54:06.579Z,3.11
2023-01-19T21:56:35.557Z,3.13
2023-01-19T21:59:03.490Z,3.13
2023-01-19T22:01:34.885Z,3.07
2023-01-19T22:04:02.544Z,3.13
2023-01-19T22:06:30.071Z,3.12
2023-01-19T22:08:58.416Z,3.16
2023-01-19T22:11:25.882Z,3.13
2023-01-19T22:13:54.556Z,3.09
2023-01-19T22:16:23.561Z,3.12
2023-01-19T22:18:59.488Z,3.15
2023-01-19T22:21:35.959Z,3.14
2023-01-19T22:24:05.284Z,3.22
2023-01-19T22:26:34.499Z,3.23
2023-01-19T22:29:04.522Z,3.33
2023-01-19T22:31:32.121Z,3.39
2023-01-19T22:33:59.524Z,3.39
2023-01-19T22:36:31.000Z,3.29
2023-01-19T22:39:05.293Z,3.38
2023-01-19T22:41:43.440Z,3.38
2023-01-19T22:44:23.654Z,3.45
2023-01-19T22:46:55.840Z,3.43
2023-01-19T22:49:23.392Z,3.38
2023-01-19T22:51:50.769Z,3.32
2023-01-19T22:54:18.144Z,3.33
2023-01-19T22:56:45.834Z,3.39
2023-01-19T22:59:13.307Z,3.33
2023-01-19T23:01:43.710Z,3.27
2023-01-19T23:04:15.559Z,3.24
2023-01-19T23:06:46.864Z,3.21
2023-01-19T23:09:15.046Z,3.20
2023-01-19T23:11:50.164Z,3.12
2023-01-19T23:14:21.920Z,3.09
2023-01-19T23:16:49.465Z,3.02
2023-01-19T23:19:18.285Z,2.99
2023-01-19T23:21:46.219Z,2.99
2023-01-19T23:24:13.614Z,2.96
2023-01-19T23:26:41.007Z,2.94
2023-01-19T23:29:14.320Z,2.93
2023-01-19T23:31:48.322Z,2.97
2023-01-19T23:34:16.273Z,2.96
2023-01-19T23:36:44.554Z,2.99
2023-01-19T23:39:19.172Z,3.05
2023-01-19T23:41:47.471Z,3.08
2023-01-19T23:44:15.377Z,3.08
2023-01-19T23:46:43.953Z,3.04
2023-01-19T23:49:12.674Z,3.00
2023-01-19T23:51:40.804Z,3.01
2023-01-19T23:54:08.365Z,2.98
2023-01-19T23:56:38.351Z,2.93
2023-01-19T23:59:12.698Z,2.93
